createdAt,value
2023-05-05T00:00:02.511Z,82.4913
2023-05-05T00:01:03.332Z,82.4607
2023-05-05T00:02:04.914Z,82.4041
2023-05-05T00:03:06.764Z,82.3662
2023-05-05T00:04:08.218Z,82.4955
2023-05-05T00:05:09.886Z,82.4850
2023-05-05T00:06:11.593Z,82.5335
2023-05-05T00:07:13.147Z,82.4384
2023-05-05T00:08:14.794Z,82.3094
2023-05-05T00:09:16.424Z,82.2815
2023-05-05T00:10:18.090Z,82.3224
2023-05-05T00:11:19.760Z,82.4933
2023-05-05T00:12:21.331Z,82.6088
2023-05-05T00:13:23.048Z,82.5601
2023-05-05T00:14:24.659Z,82.4948
2023-05-05T00:15:26.307Z,82.4578
2023-05-05T00:16:28.081Z,82.4984
2023-05-05T00:17:29.610Z,82.5532
2023-05-05T00:18:31.276Z,82.5492
2023-05-05T00:19:32.893Z,82.4146
2023-05-05T00:20:34.583Z,82.2574
2023-05-05T00:21:36.244Z,82.1990
2023-05-05T00:22:37.862Z,82.2892
2023-05-05T00:23:39.472Z,82.5073
2023-05-05T00:24:41.217Z,82.5329
2023-05-05T00:25:42.754Z,82.4491
2023-05-05T00:26:44.490Z,82.4538
2023-05-05T00:27:46.152Z,82.3506
2023-05-05T00:28:47.770Z,82.5554
2023-05-05T00:29:49.331Z,82.7234
2023-05-05T00:30:51.070Z,82.7596
2023-05-05T00:31:52.665Z,82.6682
2023-05-05T00:32:54.467Z,82.3667
2023-05-05T00:33:55.908Z,82.2878
2023-05-05T00:34:57.673Z,82.5498
2023-05-05T00:35:59.281Z,82.6536
2023-05-05T00:37:00.929Z,82.4907
2023-05-05T00:38:02.482Z,82.4094
2023-05-05T00:39:04.207Z,82.2938
2023-05-05T00:40:05.897Z,82.2068
2023-05-05T00:41:07.485Z,82.5053
2023-05-05T00:42:10.493Z,82.5591
2023-05-05T00:43:10.692Z,82.6044
2023-05-05T00:44:12.394Z,82.5663
2023-05-05T00:45:15.004Z,82.3075
2023-05-05T00:46:15.704Z,82.2127
2023-05-05T00:47:17.389Z,82.4420
2023-05-05T00:48:19.078Z,82.6468
2023-05-05T00:49:20.666Z,82.5337
2023-05-05T00:50:22.255Z,82.4145
2023-05-05T00:51:23.991Z,82.3157
2023-05-05T00:52:25.601Z,82.4018
2023-05-05T00:53:27.226Z,82.5644
2023-05-05T00:54:28.824Z,82.2341
2023-05-05T00:55:30.504Z,82.4222
2023-05-05T00:56:32.121Z,82.3355
2023-05-05T00:57:33.830Z,82.1929
2023-05-05T00:58:35.355Z,82.0996
2023-05-05T00:59:37.082Z,82.0744
2023-05-05T01:00:38.679Z,81.9530
2023-05-05T01:01:41.491Z,81.8423
2023-05-05T01:02:42.458Z,82.1934
2023-05-05T01:03:43.845Z,82.0448
2023-05-05T01:04:46.139Z,81.8845
2023-05-05T01:05:46.883Z,81.8765
2023-05-05T01:06:48.494Z,82.1282
2023-05-05T01:07:50.130Z,81.9615
2023-05-05T01:08:51.794Z,81.7036
2023-05-05T01:10:04.201Z,81.8933
2023-05-05T01:10:55.089Z,82.2447
2023-05-05T01:11:56.780Z,81.7891
2023-05-05T01:12:58.436Z,81.7886
2023-05-05T01:13:59.967Z,81.7893
2023-05-05T01:15:01.639Z,82.0033
2023-05-05T01:16:03.337Z,81.6431
2023-05-05T01:17:04.951Z,81.5708
2023-05-05T01:18:06.764Z,81.6421
2023-05-05T01:19:08.200Z,81.8437
2023-05-05T01:20:10.013Z,81.6191
2023-05-05T01:21:11.495Z,81.4860
2023-05-05T01:22:13.129Z,81.6725
2023-05-05T01:23:14.786Z,82.0597
2023-05-05T01:24:16.386Z,81.7895
2023-05-05T01:25:18.073Z,81.6289
2023-05-05T01:26:19.691Z,81.8647
2023-05-05T01:27:21.367Z,81.8716
2023-05-05T01:28:23.021Z,81.6375
2023-05-05T01:29:24.643Z,81.6146
2023-05-05T01:30:26.257Z,81.6303
2023-05-05T01:31:28.032Z,81.9011
2023-05-05T01:32:29.635Z,81.6737
2023-05-05T01:33:31.556Z,81.5733
2023-05-05T01:34:32.892Z,81.6171
2023-05-05T01:35:34.515Z,81.7790
2023-05-05T01:36:36.150Z,81.6581
2023-05-05T01:37:37.868Z,81.6770
2023-05-05T01:38:39.498Z,81.7735
2023-05-05T01:39:41.107Z,81.8125
2023-05-05T01:40:42.766Z,81.3540
2023-05-05T01:41:44.439Z,81.4408
2023-05-05T01:42:46.063Z,81.6558
2023-05-05T01:43:47.739Z,81.2219
2023-05-05T01:44:49.241Z,81.0694
2023-05-05T01:45:50.980Z,81.4141
2023-05-05T01:46:52.560Z,81.5678
2023-05-05T01:47:54.273Z,81.8157
2023-05-05T01:48:55.836Z,81.6069
2023-05-05T01:49:57.605Z,81.4836
2023-05-05T01:50:59.158Z,81.7417
2023-05-05T01:52:00.870Z,81.5697
2023-05-05T01:53:02.473Z,81.4759
2023-05-05T01:54:04.958Z,81.3693
2023-05-05T01:55:05.800Z,81.5128
2023-05-05T01:56:07.365Z,81.6612
2023-05-05T01:57:09.010Z,81.3732
2023-05-05T01:58:10.781Z,81.5124
2023-05-05T01:59:12.334Z,82.0207
2023-05-05T02:00:13.997Z,81.4400
2023-05-05T02:01:15.604Z,81.3173
2023-05-05T02:02:17.266Z,81.3338
2023-05-05T02:03:18.969Z,81.5295
2023-05-05T02:04:20.665Z,81.8111
2023-05-05T02:05:22.198Z,81.3925
2023-05-05T02:06:23.820Z,81.3245
2023-05-05T02:07:25.429Z,81.5914
2023-05-05T02:08:27.185Z,81.2262
2023-05-05T02:09:28.754Z,81.1703
2023-05-05T02:10:30.415Z,81.1509
2023-05-05T02:11:32.004Z,81.4021
2023-05-05T02:12:33.719Z,81.7169
2023-05-05T02:13:35.368Z,81.1996
2023-05-05T02:14:36.997Z,81.3225
2023-05-05T02:15:38.678Z,81.4284
2023-05-05T02:16:40.284Z,81.0557
2023-05-05T02:17:41.939Z,80.9230
2023-05-05T02:18:43.565Z,81.0028
2023-05-05T02:19:45.250Z,81.2496
2023-05-05T02:20:46.860Z,81.7844
2023-05-05T02:21:48.561Z,81.2694
2023-05-05T02:22:50.131Z,81.0093
2023-05-05T02:23:51.922Z,81.1878
2023-05-05T02:24:53.467Z,81.0523
2023-05-05T02:25:55.018Z,80.5024
2023-05-05T02:26:56.816Z,80.9622
2023-05-05T02:27:58.319Z,81.2934
2023-05-05T02:29:00.031Z,81.6926
2023-05-05T02:30:01.654Z,81.2220
2023-05-05T02:31:03.294Z,81.0493
2023-05-05T02:32:04.986Z,81.0230
2023-05-05T02:33:06.715Z,81.1249
2023-05-05T02:34:08.226Z,80.6519
2023-05-05T02:35:09.896Z,81.0881
2023-05-05T02:36:11.536Z,81.3903
2023-05-05T02:37:13.214Z,81.4505
2023-05-05T02:38:14.783Z,81.0367
2023-05-05T02:39:16.426Z,81.0467
2023-05-05T02:40:18.082Z,80.8059
2023-05-05T02:41:19.690Z,81.0250
2023-05-05T02:42:21.923Z,80.8326
2023-05-05T02:43:23.124Z,80.9001
2023-05-05T02:44:24.626Z,80.8501
2023-05-05T02:45:26.855Z,80.9159
2023-05-05T02:46:27.963Z,80.4917
2023-05-05T02:47:29.628Z,80.4493
2023-05-05T02:48:31.148Z,80.3365
2023-05-05T02:49:32.885Z,80.4923
2023-05-05T02:50:34.498Z,80.6893
2023-05-05T02:51:36.232Z,80.6603
2023-05-05T02:52:37.824Z,80.7094
2023-05-05T02:53:39.443Z,80.9037
2023-05-05T02:54:41.436Z,80.6802
2023-05-05T02:55:42.753Z,80.3817
2023-05-05T02:56:44.359Z,80.3829
2023-05-05T02:57:46.001Z,80.3118
2023-05-05T02:58:47.620Z,80.6387
2023-05-05T02:59:49.339Z,80.3609
2023-05-05T03:00:50.953Z,80.3976
2023-05-05T03:01:52.736Z,80.5908
2023-05-05T03:02:54.339Z,80.8110
2023-05-05T03:03:55.976Z,80.5813
2023-05-05T03:04:57.556Z,80.2416
2023-05-05T03:05:59.208Z,80.1780
2023-05-05T03:07:00.767Z,80.2102
2023-05-05T03:08:02.533Z,80.2549
2023-05-05T03:09:04.171Z,80.5806
2023-05-05T03:10:06.203Z,80.4911
2023-05-05T03:11:07.386Z,80.3942
2023-05-05T03:12:09.096Z,80.6074
2023-05-05T03:13:10.858Z,80.4027
2023-05-05T03:14:12.369Z,80.2042
2023-05-05T03:15:14.071Z,80.1654
2023-05-05T03:16:15.780Z,80.0614
2023-05-05T03:17:17.310Z,80.1142
2023-05-05T03:18:18.988Z,80.2382
2023-05-05T03:19:20.617Z,80.2464
2023-05-05T03:20:22.302Z,80.2595
2023-05-05T03:21:23.963Z,80.4021
2023-05-05T03:22:25.536Z,80.3026
2023-05-05T03:23:27.175Z,80.0525
2023-05-05T03:24:28.850Z,80.0668
2023-05-05T03:25:30.557Z,80.0255
2023-05-05T03:26:32.487Z,79.9701
2023-05-05T03:27:33.796Z,80.1078
2023-05-05T03:28:35.363Z,80.0941
2023-05-05T03:29:37.096Z,80.4234
2023-05-05T03:30:38.781Z,80.3186
2023-05-05T03:31:41.102Z,80.4700
2023-05-05T03:32:42.082Z,80.0399
2023-05-05T03:33:43.649Z,79.9417
2023-05-05T03:34:45.245Z,79.8469
2023-05-05T03:35:46.976Z,80.0559
2023-05-05T03:36:48.582Z,80.0411
2023-05-05T03:37:50.971Z,80.2306
2023-05-05T03:38:51.816Z,80.1268
2023-05-05T03:39:53.605Z,80.2611
2023-05-05T03:40:55.195Z,80.3273
2023-05-05T03:41:56.853Z,79.9856
2023-05-05T03:42:58.434Z,79.8944
2023-05-05T03:44:00.185Z,79.8735
2023-05-05T03:45:01.733Z,79.9962
2023-05-05T03:46:03.469Z,79.8393
2023-05-05T03:47:06.000Z,79.9166
2023-05-05T03:48:06.752Z,80.2167
2023-05-05T03:49:08.311Z,80.5485
2023-05-05T03:50:10.170Z,80.2073
2023-05-05T03:51:11.636Z,79.9530
2023-05-05T03:52:15.093Z,79.9436
2023-05-05T03:53:14.976Z,79.9788
2023-05-05T03:54:16.552Z,79.6170
2023-05-05T03:55:18.186Z,79.6683
2023-05-05T03:56:19.873Z,79.9589
2023-05-05T03:57:21.468Z,80.2248
2023-05-05T03:58:24.011Z,80.4414
2023-05-05T03:59:24.741Z,80.0671
2023-05-05T04:00:26.464Z,79.9863
2023-05-05T04:01:28.859Z,80.1812
2023-05-05T04:02:29.855Z,79.5820
2023-05-05T04:03:31.651Z,79.8593
2023-05-05T04:04:33.154Z,80.0479
2023-05-05T04:05:34.653Z,80.1876
2023-05-05T04:06:36.293Z,80.4498
2023-05-05T04:07:37.927Z,80.1817
2023-05-05T04:08:40.068Z,79.9984
2023-05-05T04:09:41.959Z,80.1204
2023-05-05T04:10:42.907Z,79.7034
2023-05-05T04:11:44.545Z,80.0516
2023-05-05T04:12:46.356Z,80.2064
2023-05-05T04:13:47.871Z,80.1695
2023-05-05T04:14:49.537Z,80.4690
2023-05-05T04:15:51.104Z,80.1760
2023-05-05T04:16:52.716Z,79.9966
2023-05-05T04:17:55.142Z,79.8519
2023-05-05T04:18:56.061Z,79.4405
2023-05-05T04:19:57.720Z,79.7746
2023-05-05T04:20:59.306Z,80.2137
2023-05-05T04:22:00.971Z,80.3821
2023-05-05T04:23:02.643Z,80.4541
2023-05-05T04:24:04.278Z,80.0294
2023-05-05T04:25:05.964Z,80.1590
2023-05-05T04:26:07.514Z,79.4231
2023-05-05T04:27:09.192Z,79.2385
2023-05-05T04:28:10.852Z,80.0090
2023-05-05T04:29:12.523Z,80.2224
2023-05-05T04:30:14.143Z,80.4299
2023-05-05T04:31:15.753Z,80.4565
2023-05-05T04:32:17.296Z,80.3356
2023-05-05T04:33:19.018Z,80.2246
2023-05-05T04:34:20.640Z,79.5751
2023-05-05T04:35:22.300Z,79.6384
2023-05-05T04:36:23.936Z,80.0454
2023-05-05T04:37:25.520Z,80.2111
2023-05-05T04:38:27.301Z,80.3432
2023-05-05T04:39:29.535Z,80.5639
2023-05-05T04:40:30.481Z,80.5050
2023-05-05T04:41:32.049Z,79.6212
2023-05-05T04:42:33.701Z,79.5575
2023-05-05T04:43:35.400Z,80.0186
2023-05-05T04:44:37.474Z,80.2755
2023-05-05T04:45:38.705Z,80.3372
2023-05-05T04:46:40.326Z,80.6446
2023-05-05T04:47:42.045Z,80.8229
2023-05-05T04:48:43.590Z,79.5228
2023-05-05T04:49:45.476Z,79.5639
2023-05-05T04:50:46.971Z,79.8940
2023-05-05T04:51:48.547Z,80.3064
2023-05-05T04:52:51.392Z,80.2112
2023-05-05T04:53:53.091Z,80.2772
2023-05-05T04:54:53.632Z,80.6968
2023-05-05T04:55:55.286Z,79.7924
2023-05-05T04:56:56.918Z,79.0448
2023-05-05T04:57:58.584Z,79.4226
2023-05-05T04:59:00.206Z,80.0176
2023-05-05T05:00:01.893Z,80.4788
2023-05-05T05:01:03.525Z,80.5664
2023-05-05T05:02:05.246Z,80.5795
2023-05-05T05:03:06.854Z,80.2768
2023-05-05T05:04:08.422Z,79.1432
2023-05-05T05:05:10.094Z,79.3920
2023-05-05T05:06:11.723Z,80.0625
2023-05-05T05:07:13.336Z,80.4865
2023-05-05T05:08:15.087Z,80.5952
2023-05-05T05:09:16.575Z,80.6722
2023-05-05T05:10:18.342Z,80.7694
2023-05-05T05:11:19.974Z,79.7713
2023-05-05T05:12:21.563Z,79.1582
2023-05-05T05:13:23.269Z,79.4247
2023-05-05T05:14:24.898Z,80.2871
2023-05-05T05:15:26.463Z,80.7435
2023-05-05T05:16:28.351Z,80.9997
2023-05-05T05:17:29.858Z,81.1297
2023-05-05T05:18:31.521Z,80.6992
2023-05-05T05:19:34.069Z,79.4088
2023-05-05T05:20:35.092Z,79.2470
2023-05-05T05:21:36.425Z,80.0266
2023-05-05T05:22:38.009Z,80.6410
2023-05-05T05:23:39.658Z,80.8176
2023-05-05T05:24:41.363Z,80.9856
2023-05-05T05:25:43.897Z,81.1340
2023-05-05T05:26:44.690Z,79.6641
2023-05-05T05:27:50.136Z,79.3559
2023-05-05T05:28:47.856Z,79.4659
2023-05-05T05:29:49.558Z,80.0612
2023-05-05T05:30:51.228Z,80.6094
2023-05-05T05:31:52.803Z,81.1066
2023-05-05T05:32:54.544Z,81.4049
2023-05-05T05:33:56.191Z,80.4002
2023-05-05T05:34:57.678Z,79.5753
2023-05-05T05:35:59.470Z,79.3833
2023-05-05T05:37:01.076Z,79.7825
2023-05-05T05:38:02.700Z,80.5190
2023-05-05T05:39:04.256Z,81.0262
2023-05-05T05:40:06.032Z,81.2427
2023-05-05T05:41:07.535Z,80.7784
2023-05-05T05:42:10.507Z,79.8280
2023-05-05T05:43:10.923Z,79.7775
2023-05-05T05:44:12.522Z,80.1982
2023-05-05T05:45:14.094Z,80.5919
2023-05-05T05:46:15.886Z,80.9159
2023-05-05T05:47:17.500Z,81.2506
2023-05-05T05:48:20.104Z,79.5994
2023-05-05T05:49:20.598Z,79.3059
2023-05-05T05:50:22.673Z,79.7242
2023-05-05T05:51:24.267Z,80.0545
2023-05-05T05:52:25.978Z,80.2639
2023-05-05T05:53:28.665Z,80.8252
2023-05-05T05:54:29.666Z,80.3936
2023-05-05T05:55:30.492Z,78.9488
2023-05-05T05:56:32.215Z,78.5596
2023-05-05T05:57:34.167Z,79.0131
2023-05-05T05:58:35.413Z,80.1128
2023-05-05T05:59:37.121Z,80.4536
2023-05-05T06:00:38.950Z,80.5125
2023-05-05T06:01:40.445Z,79.5189
2023-05-05T06:02:42.296Z,79.3800
2023-05-05T06:03:43.712Z,79.5096
2023-05-05T06:04:45.285Z,79.7607
2023-05-05T06:05:46.886Z,79.9091
2023-05-05T06:06:48.675Z,80.4448
2023-05-05T06:07:50.229Z,80.5488
2023-05-05T06:08:51.877Z,80.6746
2023-05-05T06:09:53.503Z,79.9677
2023-05-05T06:10:55.272Z,79.2817
2023-05-05T06:11:56.831Z,79.2960
2023-05-05T06:12:58.578Z,79.7382
2023-05-05T06:14:00.071Z,80.3903
2023-05-05T06:15:01.727Z,80.6697
2023-05-05T06:16:03.395Z,80.7099
2023-05-05T06:17:05.085Z,80.5813
2023-05-05T06:18:06.702Z,80.0510
2023-05-05T06:19:08.349Z,79.8917
2023-05-05T06:20:10.058Z,80.2829
2023-05-05T06:21:11.630Z,79.7528
2023-05-05T06:22:13.348Z,79.4110
2023-05-05T06:23:14.886Z,79.6252
2023-05-05T06:24:16.474Z,79.4797
2023-05-05T06:25:18.180Z,78.8762
2023-05-05T06:26:19.818Z,79.1888
2023-05-05T06:27:21.446Z,78.5736
2023-05-05T06:28:23.612Z,78.1969
2023-05-05T06:29:24.694Z,78.2678
2023-05-05T06:30:26.413Z,78.4307
2023-05-05T06:31:27.996Z,78.5498
2023-05-05T06:32:30.164Z,78.7028
2023-05-05T06:33:31.328Z,76.2593
2023-05-05T06:34:32.970Z,75.8977
2023-05-05T06:35:34.596Z,76.0782
2023-05-05T06:36:36.306Z,76.5800
2023-05-05T06:37:37.868Z,77.3967
2023-05-05T06:38:39.571Z,77.1363
2023-05-05T06:39:41.135Z,76.8141
2023-05-05T06:40:42.841Z,76.3620
2023-05-05T06:41:44.478Z,73.6182
2023-05-05T06:42:46.160Z,74.2324
2023-05-05T06:43:48.097Z,75.1904
2023-05-05T06:44:49.469Z,75.5895
2023-05-05T06:45:50.950Z,76.4837
2023-05-05T06:46:52.731Z,77.3903
2023-05-05T06:47:54.295Z,77.1331
2023-05-05T06:48:56.118Z,73.4057
2023-05-05T06:49:57.502Z,71.6141
2023-05-05T06:50:59.201Z,73.3901
2023-05-05T06:52:00.799Z,74.3887
2023-05-05T06:53:02.481Z,75.1586
2023-05-05T06:54:04.152Z,75.2804
2023-05-05T06:55:05.742Z,76.1040
2023-05-05T06:56:07.405Z,71.1028
2023-05-05T06:57:09.054Z,69.3996
2023-05-05T06:58:11.600Z,69.8498
2023-05-05T06:59:12.308Z,70.4742
2023-05-05T07:00:13.898Z,71.0716
2023-05-05T07:01:15.720Z,69.8117
2023-05-05T07:02:17.211Z,69.0503
2023-05-05T07:03:18.914Z,63.9413
2023-05-05T07:04:20.561Z,63.4789
2023-05-05T07:05:22.244Z,64.0974
2023-05-05T07:06:23.765Z,64.3029
2023-05-05T07:07:25.451Z,63.7503
2023-05-05T07:08:27.066Z,62.2813
2023-05-05T07:09:28.743Z,59.0375
2023-05-05T07:10:30.356Z,58.7663
2023-05-05T07:11:31.956Z,60.9650
2023-05-05T07:12:33.668Z,61.1978
2023-05-05T07:13:35.249Z,60.6870
2023-05-05T07:14:37.019Z,58.5409
2023-05-05T07:15:38.684Z,56.9320
2023-05-05T07:16:40.337Z,59.2644
2023-05-05T07:17:41.879Z,60.3729
2023-05-05T07:18:43.586Z,60.1297
2023-05-05T07:19:45.248Z,59.5626
2023-05-05T07:20:46.965Z,57.5764
2023-05-05T07:21:48.437Z,58.8160
2023-05-05T07:22:50.107Z,61.4724
2023-05-05T07:23:52.091Z,63.0262
2023-05-05T07:24:53.462Z,62.7173
2023-05-05T07:25:54.998Z,60.6947
2023-05-05T07:26:56.644Z,62.0555
2023-05-05T07:27:58.272Z,65.1497
2023-05-05T07:29:00.008Z,66.7652
2023-05-05T07:30:02.073Z,66.2911
2023-05-05T07:31:03.263Z,64.3613
2023-05-05T07:32:04.921Z,64.8894
2023-05-05T07:33:06.554Z,67.7581
2023-05-05T07:34:08.519Z,69.1095
2023-05-05T07:35:09.789Z,68.6825
2023-05-05T07:36:11.519Z,66.2406
2023-05-05T07:37:13.104Z,65.7001
2023-05-05T07:38:15.602Z,68.0014
2023-05-05T07:39:17.127Z,67.9183
2023-05-05T07:40:18.095Z,67.7215
2023-05-05T07:41:19.651Z,66.9188
2023-05-05T07:42:21.422Z,66.0473
2023-05-05T07:43:23.015Z,67.4609
2023-05-05T07:44:24.658Z,68.9016
2023-05-05T07:45:26.268Z,67.8521
2023-05-05T07:46:28.016Z,66.6486
2023-05-05T07:47:29.587Z,67.2060
2023-05-05T07:48:31.193Z,69.1355
2023-05-05T07:49:32.811Z,69.7144
2023-05-05T07:50:34.505Z,66.9202
2023-05-05T07:51:36.051Z,66.0749
2023-05-05T07:52:45.313Z,66.3830
2023-05-05T07:53:39.304Z,68.9387
2023-05-05T07:54:40.960Z,69.8794
2023-05-05T07:55:43.033Z,68.7362
2023-05-05T07:56:44.569Z,66.5145
2023-05-05T07:57:45.963Z,66.2632
2023-05-05T07:58:48.488Z,68.2283
2023-05-05T07:59:49.226Z,69.2259
2023-05-05T08:00:50.999Z,69.1923
2023-05-05T08:01:54.791Z,67.2002
2023-05-05T08:02:54.322Z,66.2424
2023-05-05T08:03:55.995Z,66.3721
2023-05-05T08:04:57.596Z,68.5685
2023-05-05T08:05:59.305Z,67.7999
2023-05-05T08:07:00.877Z,66.3849
2023-05-05T08:08:02.567Z,65.6550
2023-05-05T08:09:04.159Z,66.2127
2023-05-05T08:10:05.832Z,67.5558
2023-05-05T08:11:07.479Z,67.5852
2023-05-05T08:12:09.896Z,64.8011
2023-05-05T08:13:10.632Z,63.3907
2023-05-05T08:14:12.278Z,63.3127
2023-05-05T08:15:13.924Z,65.0489
2023-05-05T08:16:15.583Z,64.2400
2023-05-05T08:17:18.144Z,61.1824
2023-05-05T08:18:18.861Z,59.9469
2023-05-05T08:19:28.600Z,61.8771
2023-05-05T08:20:22.148Z,62.5515
2023-05-05T08:21:23.793Z,59.8663
2023-05-05T08:22:25.421Z,58.7862
2023-05-05T08:23:27.048Z,58.6022
2023-05-05T08:24:28.640Z,60.7993
2023-05-05T08:25:30.283Z,60.6057
2023-05-05T08:26:31.933Z,59.0503
2023-05-05T08:27:33.625Z,58.6776
2023-05-05T08:28:35.307Z,59.9154
2023-05-05T08:29:36.827Z,61.8608
2023-05-05T08:30:38.434Z,61.6263
2023-05-05T08:31:40.320Z,60.7618
2023-05-05T08:32:41.871Z,61.2726
2023-05-05T08:33:43.450Z,63.8274
2023-05-05T08:34:45.014Z,65.4522
2023-05-05T08:35:46.706Z,62.8663
2023-05-05T08:36:48.360Z,61.9902
2023-05-05T08:37:49.964Z,61.5455
2023-05-05T08:38:51.593Z,62.9582
2023-05-05T08:39:53.202Z,62.4468
2023-05-05T08:40:54.953Z,60.3353
2023-05-05T08:41:56.590Z,58.8703
2023-05-05T08:42:58.230Z,59.0595
2023-05-05T08:43:59.779Z,61.3955
2023-05-05T08:45:01.425Z,59.6827
2023-05-05T08:46:03.163Z,58.2396
2023-05-05T08:47:04.864Z,57.9029
2023-05-05T08:48:06.460Z,58.6708
2023-05-05T08:49:08.087Z,59.9492
2023-05-05T08:50:09.681Z,59.0845
2023-05-05T08:51:11.256Z,58.1851
2023-05-05T08:52:13.024Z,58.0177
2023-05-05T08:53:14.600Z,58.6058
2023-05-05T08:54:16.222Z,59.3966
2023-05-05T08:55:17.942Z,59.1301
2023-05-05T08:56:19.467Z,58.6542
2023-05-05T08:57:21.185Z,59.2786
2023-05-05T08:58:23.015Z,60.4582
2023-05-05T08:59:24.403Z,61.0287
2023-05-05T09:00:26.095Z,60.8265
2023-05-05T09:01:27.710Z,61.4547
2023-05-05T09:02:29.474Z,62.6049
2023-05-05T09:03:31.065Z,62.0541
2023-05-05T09:04:32.656Z,62.0534
2023-05-05T09:05:34.253Z,62.2741
2023-05-05T09:06:35.924Z,63.7337
2023-05-05T09:07:37.554Z,62.7773
2023-05-05T09:08:39.233Z,62.0422
2023-05-05T09:09:40.818Z,62.1815
2023-05-05T09:10:42.495Z,63.0926
2023-05-05T09:11:44.147Z,63.3770
2023-05-05T09:12:45.818Z,62.2007
2023-05-05T09:13:48.001Z,61.6810
2023-05-05T09:14:49.109Z,62.0671
2023-05-05T09:15:50.685Z,63.2798
2023-05-05T09:16:52.265Z,62.6718
2023-05-05T09:17:53.982Z,61.8984
2023-05-05T09:18:55.673Z,61.9882
2023-05-05T09:19:57.361Z,62.6141
2023-05-05T09:20:59.573Z,63.8757
2023-05-05T09:22:00.550Z,63.1503
2023-05-05T09:23:02.204Z,62.9080
2023-05-05T09:24:08.216Z,63.5859
2023-05-05T09:25:05.682Z,63.9088
2023-05-05T09:26:07.072Z,63.2814
2023-05-05T09:27:08.785Z,62.6945
2023-05-05T09:28:10.428Z,63.3494
2023-05-05T09:29:12.079Z,63.9472
2023-05-05T09:30:13.719Z,63.1393
2023-05-05T09:31:15.445Z,62.8481
2023-05-05T09:32:16.992Z,63.7977
2023-05-05T09:33:18.623Z,64.0539
2023-05-05T09:34:20.342Z,63.3304
2023-05-05T09:35:22.039Z,62.8416
2023-05-05T09:36:24.233Z,64.1619
2023-05-05T09:37:25.216Z,65.0224
2023-05-05T09:38:26.789Z,63.4246
2023-05-05T09:39:28.548Z,62.9618
2023-05-05T09:40:30.138Z,63.4444
2023-05-05T09:41:31.731Z,64.9124
2023-05-05T09:42:33.407Z,64.2739
2023-05-05T09:43:35.096Z,63.2549
2023-05-05T09:44:36.736Z,63.0143
2023-05-05T09:45:38.722Z,63.7406
2023-05-05T09:46:40.049Z,65.0801
2023-05-05T09:47:41.612Z,63.5391
2023-05-05T09:48:43.271Z,62.9616
2023-05-05T09:49:45.688Z,63.3474
2023-05-05T09:50:46.667Z,64.7642
2023-05-05T09:51:49.010Z,63.9494
2023-05-05T09:52:49.807Z,62.9491
2023-05-05T09:53:51.537Z,62.8624
2023-05-05T09:54:53.117Z,64.5391
2023-05-05T09:55:54.835Z,64.5742
2023-05-05T09:56:56.585Z,63.1478
2023-05-05T09:57:58.084Z,62.7896
2023-05-05T09:58:59.678Z,63.3135
2023-05-05T10:00:01.366Z,63.9159
2023-05-05T10:01:03.036Z,63.2603
2023-05-05T10:02:04.709Z,62.7029
2023-05-05T10:03:06.330Z,63.0299
2023-05-05T10:04:07.881Z,64.2151
2023-05-05T10:05:09.551Z,63.2274
2023-05-05T10:06:11.241Z,62.6283
2023-05-05T10:07:12.808Z,62.8124
2023-05-05T10:08:14.454Z,63.6737
2023-05-05T10:09:16.127Z,63.2019
2023-05-05T10:10:17.786Z,62.5704
2023-05-05T10:11:19.393Z,62.6835
2023-05-05T10:12:20.974Z,63.2835
2023-05-05T10:13:22.741Z,63.5353
2023-05-05T10:14:24.260Z,62.9953
2023-05-05T10:15:25.989Z,62.5951
2023-05-05T10:16:29.077Z,63.0621
2023-05-05T10:17:29.352Z,64.5826
2023-05-05T10:18:30.883Z,63.3697
2023-05-05T10:19:32.507Z,62.3764
2023-05-05T10:20:34.260Z,62.3622
2023-05-05T10:21:36.297Z,63.8908
2023-05-05T10:22:37.497Z,63.8816
2023-05-05T10:23:39.090Z,62.5130
2023-05-05T10:24:40.696Z,62.2013
2023-05-05T10:25:42.375Z,63.1569
2023-05-05T10:26:44.089Z,63.9125
2023-05-05T10:27:45.659Z,62.8558
2023-05-05T10:28:47.251Z,62.3828
2023-05-05T10:29:48.949Z,62.6875
2023-05-05T10:30:50.604Z,63.5512
2023-05-05T10:31:54.380Z,62.6901
2023-05-05T10:33:04.034Z,62.3107
2023-05-05T10:33:55.730Z,62.7185
2023-05-05T10:34:57.163Z,64.0772
2023-05-05T10:35:58.874Z,63.0512
2023-05-05T10:37:00.376Z,62.3548
2023-05-05T10:38:02.178Z,62.4191
2023-05-05T10:39:03.612Z,63.5014
2023-05-05T10:40:05.464Z,63.6771
2023-05-05T10:41:06.958Z,62.6094
2023-05-05T10:42:08.622Z,62.1995
2023-05-05T10:43:10.263Z,63.0489
2023-05-05T10:44:11.842Z,63.4585
2023-05-05T10:45:13.484Z,62.6085
2023-05-05T10:46:15.215Z,62.4029
2023-05-05T10:47:16.818Z,63.0042
2023-05-05T10:48:18.441Z,63.4183
2023-05-05T10:49:20.068Z,62.5156
2023-05-05T10:50:21.703Z,61.8256
2023-05-05T10:51:38.640Z,62.6627
2023-05-05T10:52:25.109Z,63.5370
2023-05-05T10:53:26.642Z,62.3313
2023-05-05T10:54:28.345Z,61.7652
2023-05-05T10:55:29.912Z,61.9842
2023-05-05T10:56:31.656Z,63.4435
2023-05-05T10:57:33.704Z,62.7046
2023-05-05T10:58:43.685Z,61.9745
2023-05-05T10:59:36.528Z,62.1169
2023-05-05T11:00:38.240Z,63.1287
2023-05-05T11:01:39.863Z,62.9266
2023-05-05T11:02:41.712Z,62.0291
2023-05-05T11:03:43.040Z,61.8846
2023-05-05T11:04:44.670Z,62.5408
2023-05-05T11:05:46.354Z,61.6277
2023-05-05T11:06:48.041Z,61.0355
2023-05-05T11:07:50.194Z,61.2522
2023-05-05T11:08:51.247Z,61.9053
2023-05-05T11:09:52.927Z,60.7588
2023-05-05T11:10:55.116Z,60.3478
2023-05-05T11:11:56.315Z,60.4680
2023-05-05T11:12:57.999Z,61.1661
2023-05-05T11:13:59.544Z,60.7099
2023-05-05T11:15:01.138Z,59.9723
2023-05-05T11:16:02.749Z,59.8946
2023-05-05T11:17:04.468Z,60.5052
2023-05-05T11:18:07.845Z,61.2694
2023-05-05T11:19:07.762Z,60.7472
2023-05-05T11:20:09.650Z,60.1328
2023-05-05T11:21:11.062Z,59.8194
2023-05-05T11:22:13.245Z,60.9039
2023-05-05T11:23:16.607Z,61.1770
2023-05-05T11:24:16.665Z,60.3080
2023-05-05T11:25:17.617Z,60.1627
2023-05-05T11:26:19.212Z,60.5519
2023-05-05T11:27:20.952Z,61.1498
2023-05-05T11:28:22.546Z,60.5823
2023-05-05T11:29:24.182Z,60.4003
2023-05-05T11:30:25.795Z,61.0674
2023-05-05T11:31:27.521Z,61.0337
2023-05-05T11:32:29.156Z,60.5650
2023-05-05T11:33:30.857Z,60.7220
2023-05-05T11:34:32.383Z,61.5763
2023-05-05T11:35:34.107Z,61.7574
2023-05-05T11:36:35.621Z,61.0599
2023-05-05T11:37:37.725Z,60.6329
2023-05-05T11:38:39.028Z,60.9965
2023-05-05T11:39:40.639Z,61.2903
2023-05-05T11:40:42.206Z,60.7655
2023-05-05T11:41:43.866Z,60.4993
2023-05-05T11:42:45.691Z,60.9255
2023-05-05T11:43:47.196Z,60.9996
2023-05-05T11:44:48.782Z,60.6463
2023-05-05T11:45:50.438Z,60.7647
2023-05-05T11:46:52.052Z,61.6727
2023-05-05T11:47:53.780Z,61.5719
2023-05-05T11:48:55.665Z,61.1865
2023-05-05T11:49:57.081Z,61.1337
2023-05-05T11:50:58.631Z,61.4441
2023-05-05T11:52:00.297Z,61.5185
2023-05-05T11:53:02.021Z,60.7503
2023-05-05T11:54:03.700Z,60.5843
2023-05-05T11:55:05.350Z,60.9711
2023-05-05T11:56:07.013Z,60.6702
2023-05-05T11:57:08.655Z,60.1338
2023-05-05T11:58:10.393Z,59.8611
2023-05-05T11:59:11.946Z,59.8048
2023-05-05T12:00:13.564Z,59.9048
2023-05-05T12:01:15.212Z,59.8097
2023-05-05T12:02:16.968Z,59.2835
2023-05-05T12:03:18.577Z,59.0246
2023-05-05T12:04:20.211Z,58.9952
2023-05-05T12:05:21.905Z,59.5942
2023-05-05T12:06:23.374Z,61.1523
2023-05-05T12:07:25.150Z,61.0578
2023-05-05T12:08:26.698Z,60.4831
2023-05-05T12:09:28.345Z,60.7576
2023-05-05T12:10:29.971Z,60.1970
2023-05-05T12:11:31.656Z,60.7253
2023-05-05T12:12:34.082Z,61.4385
2023-05-05T12:13:35.777Z,60.9849
2023-05-05T12:14:36.563Z,60.2786
2023-05-05T12:15:38.222Z,60.6010
2023-05-05T12:16:40.002Z,62.3269
2023-05-05T12:17:41.469Z,61.6770
2023-05-05T12:18:43.397Z,61.0449
2023-05-05T12:19:44.865Z,61.3108
2023-05-05T12:20:46.457Z,63.3395
2023-05-05T12:21:48.074Z,62.7480
2023-05-05T12:22:49.674Z,61.7442
2023-05-05T12:23:51.299Z,61.8952
2023-05-05T12:24:54.927Z,63.1669